createdAt,value
2023-02-23T00:00:53.276Z,23.07
2023-02-23T00:05:44.901Z,23.27
2023-02-23T00:10:36.631Z,22.73
2023-02-23T00:15:29.880Z,23.40
2023-02-23T00:20:27.576Z,22.63
2023-02-23T00:25:19.717Z,22.97
2023-02-23T00:30:18.256Z,23.83
2023-02-23T00:35:17.631Z,24.50
2023-02-23T00:40:14.647Z,24.37
2023-02-23T00:45:11.553Z,24.53
2023-02-23T00:50:04.825Z,24.97
2023-02-23T00:54:56.609Z,25.83
2023-02-23T00:59:48.485Z,26.23
2023-02-23T01:04:40.348Z,24.27
2023-02-23T01:09:32.852Z,26.77
2023-02-23T01:14:24.979Z,26.57
2023-02-23T01:19:16.850Z,27.23
2023-02-23T01:24:09.135Z,27.13
2023-02-23T01:29:04.049Z,27.00
2023-02-23T01:34:02.242Z,28.83
2023-02-23T01:38:57.099Z,28.27
2023-02-23T01:44:15.588Z,29.67
2023-02-23T01:49:11.585Z,28.33
2023-02-23T01:54:14.709Z,28.00
2023-02-23T01:59:08.199Z,29.80
2023-02-23T02:04:07.441Z,29.50
2023-02-23T02:09:17.260Z,28.47
2023-02-23T02:14:13.813Z,30.23
2023-02-23T02:19:50.379Z,29.60
2023-02-23T02:24:52.500Z,30.40
2023-02-23T02:30:10.712Z,29.33
2023-02-23T02:35:40.935Z,29.03
2023-02-23T02:40:38.742Z,30.07
2023-02-23T02:45:38.897Z,28.97
2023-02-23T02:50:43.165Z,29.43
2023-02-23T02:55:38.508Z,29.40
2023-02-23T03:00:55.717Z,30.13
2023-02-23T03:06:09.434Z,29.23
2023-02-23T03:11:28.601Z,28.67
2023-02-23T03:17:14.070Z,28.57
2023-02-23T03:22:44.610Z,30.23
2023-02-23T03:28:19.656Z,30.53
2023-02-23T03:33:43.683Z,30.47
2023-02-23T03:39:01.687Z,30.27
2023-02-23T03:44:19.249Z,29.63
2023-02-23T03:49:32.669Z,30.47
2023-02-23T03:54:51.622Z,29.30
2023-02-23T04:00:08.682Z,28.87
2023-02-23T04:05:29.529Z,30.43
2023-02-23T04:10:42.695Z,29.27
2023-02-23T04:15:39.163Z,28.87
2023-02-23T04:20:31.022Z,30.10
2023-02-23T04:25:26.850Z,29.17
2023-02-23T04:30:20.799Z,29.60
2023-02-23T04:35:13.658Z,29.10
2023-02-23T04:40:06.938Z,32.23
2023-02-23T04:44:59.174Z,29.63
2023-02-23T04:49:51.045Z,29.90
2023-02-23T04:54:43.376Z,29.53
2023-02-23T04:59:35.464Z,30.10
2023-02-23T05:04:27.221Z,31.27
2023-02-23T05:09:18.873Z,35.23
2023-02-23T05:14:12.510Z,30.30
2023-02-23T05:19:04.603Z,31.70
2023-02-23T05:23:57.253Z,29.53
2023-02-23T05:28:49.047Z,29.87
2023-02-23T05:33:45.589Z,30.00
2023-02-23T05:38:38.577Z,29.00
2023-02-23T05:43:30.270Z,28.37
2023-02-23T05:48:22.024Z,28.00
2023-02-23T05:53:13.686Z,28.57
2023-02-23T05:58:05.334Z,28.10
2023-02-23T06:02:57.138Z,30.20
2023-02-23T06:07:49.045Z,28.67
2023-02-23T06:12:41.147Z,29.50
2023-02-23T06:17:32.801Z,29.43
2023-02-23T06:22:24.575Z,28.90
2023-02-23T06:27:16.411Z,28.43
2023-02-23T06:32:08.178Z,29.70
2023-02-23T06:37:00.369Z,29.10
2023-02-23T06:41:52.166Z,39.07
2023-02-23T06:46:43.905Z,29.97
2023-02-23T06:51:35.695Z,27.47
2023-02-23T06:56:27.351Z,26.97
2023-02-23T07:01:19.732Z,26.93
2023-02-23T07:06:11.632Z,27.33
2023-02-23T07:11:10.458Z,28.47
2023-02-23T07:16:03.019Z,26.77
2023-02-23T07:20:54.755Z,28.13
2023-02-23T07:25:46.685Z,26.63
2023-02-23T07:30:38.422Z,27.77
2023-02-23T07:35:30.152Z,26.43
2023-02-23T07:40:21.852Z,26.37
2023-02-23T07:45:13.872Z,25.00
2023-02-23T07:50:10.365Z,25.53
2023-02-23T07:55:02.175Z,23.93
2023-02-23T07:59:53.927Z,24.37
2023-02-23T08:04:45.637Z,24.13
2023-02-23T08:09:37.561Z,23.03
2023-02-23T08:14:29.260Z,23.43
2023-02-23T08:19:22.866Z,24.67
2023-02-23T08:24:14.566Z,23.97
2023-02-23T08:29:06.256Z,23.83
2023-02-23T08:33:58.447Z,24.30
2023-02-23T08:38:50.419Z,23.67
2023-02-23T08:43:43.907Z,21.80
2023-02-23T08:48:36.335Z,22.07
2023-02-23T08:53:29.748Z,22.90
2023-02-23T08:58:21.471Z,22.63
2023-02-23T09:03:13.231Z,23.90
2023-02-23T09:08:05.218Z,24.07
2023-02-23T09:12:56.909Z,25.20
2023-02-23T09:17:48.920Z,25.67
2023-02-23T09:22:42.005Z,25.37
2023-02-23T09:27:33.643Z,26.03
2023-02-23T09:32:25.372Z,23.20
2023-02-23T09:37:17.178Z,24.10
2023-02-23T09:42:42.300Z,23.77
2023-02-23T09:47:49.724Z,23.57
2023-02-23T09:52:47.476Z,25.40
2023-02-23T09:57:42.969Z,25.50
2023-02-23T10:02:45.574Z,27.03
2023-02-23T10:07:48.903Z,26.80
2023-02-23T10:13:08.098Z,25.80
2023-02-23T10:18:03.575Z,23.60
2023-02-23T10:23:02.170Z,21.00
2023-02-23T10:27:56.150Z,19.80
2023-02-23T10:32:54.469Z,17.73
2023-02-23T10:37:47.216Z,18.53
2023-02-23T10:42:39.483Z,18.00
2023-02-23T10:47:34.761Z,17.80
2023-02-23T10:52:33.978Z,18.40
2023-02-23T10:57:40.077Z,18.13
2023-02-23T11:02:32.661Z,20.47
2023-02-23T11:07:29.608Z,22.47
2023-02-23T11:12:22.997Z,25.97
2023-02-23T11:17:35.341Z,22.20
2023-02-23T11:22:32.359Z,22.77
2023-02-23T11:27:27.282Z,23.70
2023-02-23T11:32:32.352Z,24.93
2023-02-23T11:37:24.146Z,26.67
2023-02-23T11:42:27.362Z,26.50
2023-02-23T11:47:23.980Z,26.03
2023-02-23T11:52:19.723Z,26.90
2023-02-23T11:57:21.888Z,26.37
2023-02-23T12:02:20.716Z,25.10
2023-02-23T12:07:41.476Z,26.67
2023-02-23T12:12:56.823Z,25.47
2023-02-23T12:17:55.889Z,25.27
2023-02-23T12:22:54.830Z,24.20
2023-02-23T12:27:53.921Z,24.37
2023-02-23T12:33:04.288Z,24.23
2023-02-23T12:38:08.891Z,24.30
2023-02-23T12:43:11.874Z,24.30
2023-02-23T12:48:15.112Z,25.20
2023-02-23T12:53:18.829Z,23.03
2023-02-23T12:58:13.446Z,24.83
2023-02-23T13:03:44.088Z,23.57
2023-02-23T13:09:06.111Z,23.33
2023-02-23T13:14:10.456Z,23.47
2023-02-23T13:19:35.480Z,22.20
2023-02-23T13:24:35.135Z,22.83
2023-02-23T13:29:42.011Z,22.90
2023-02-23T13:34:39.381Z,22.43
2023-02-23T13:39:47.833Z,23.37
2023-02-23T13:44:49.264Z,22.67
2023-02-23T13:49:51.155Z,39.83
2023-02-23T13:54:57.351Z,19.07
2023-02-23T13:59:49.872Z,18.03
2023-02-23T14:04:43.011Z,19.33
2023-02-23T14:09:38.018Z,18.13
2023-02-23T14:14:33.177Z,17.37
2023-02-23T14:19:37.625Z,16.83
2023-02-23T14:24:29.917Z,15.87
2023-02-23T14:29:32.038Z,15.60
2023-02-23T14:34:48.052Z,16.30
2023-02-23T14:39:40.019Z,15.57
2023-02-23T14:44:41.330Z,15.07
2023-02-23T14:49:36.927Z,15.47
2023-02-23T14:54:34.558Z,15.10
2023-02-23T14:59:29.763Z,15.50
2023-02-23T15:04:24.411Z,15.63
2023-02-23T15:09:20.312Z,15.63
2023-02-23T15:14:26.879Z,14.23
2023-02-23T15:19:24.148Z,14.90
2023-02-23T15:24:16.756Z,14.60
2023-02-23T15:29:13.544Z,14.27
2023-02-23T15:34:05.298Z,15.33
2023-02-23T15:39:01.341Z,14.17
2023-02-23T15:43:53.250Z,14.80
2023-02-23T15:48:48.578Z,14.93
2023-02-23T15:53:41.124Z,15.37
2023-02-23T15:58:44.590Z,15.77
2023-02-23T16:03:46.420Z,15.00
2023-02-23T16:08:56.431Z,15.50
2023-02-23T16:13:51.769Z,15.50
2023-02-23T16:18:43.617Z,15.80
2023-02-23T16:23:44.658Z,16.17
2023-02-23T16:28:41.289Z,17.20
2023-02-23T16:34:00.094Z,17.23
2023-02-23T16:39:00.368Z,17.47
2023-02-23T16:43:54.028Z,17.17
2023-02-23T16:48:46.479Z,17.67
2023-02-23T16:53:38.297Z,16.70
2023-02-23T16:58:31.434Z,15.67
2023-02-23T17:03:28.042Z,14.80
2023-02-23T17:08:24.902Z,15.40
2023-02-23T17:13:23.067Z,15.43
2023-02-23T17:18:15.159Z,14.53
2023-02-23T17:23:06.989Z,27.97
2023-02-23T17:28:00.167Z,13.90
2023-02-23T17:32:53.578Z,12.57
2023-02-23T17:37:45.661Z,12.70
2023-02-23T17:42:37.313Z,14.10
2023-02-23T17:47:30.834Z,13.13
2023-02-23T17:52:22.486Z,12.50
2023-02-23T17:57:15.547Z,12.20
2023-02-23T18:02:10.069Z,12.77
2023-02-23T18:07:02.076Z,12.40
2023-02-23T18:11:53.748Z,12.93
2023-02-23T18:16:45.559Z,13.33
2023-02-23T18:21:40.788Z,13.67
2023-02-23T18:26:32.801Z,13.30
2023-02-23T18:31:30.033Z,14.37
2023-02-23T18:36:35.372Z,15.73
2023-02-23T18:41:30.784Z,14.97
2023-02-23T18:46:22.691Z,15.77
2023-02-23T18:51:14.730Z,16.53
2023-02-23T18:56:08.259Z,14.97
2023-02-23T19:01:00.224Z,16.37
2023-02-23T19:05:54.878Z,15.97
2023-02-23T19:10:47.761Z,17.10
2023-02-23T19:15:39.783Z,16.13
2023-02-23T19:20:35.599Z,15.77
2023-02-23T19:25:27.419Z,15.60
2023-02-23T19:30:19.151Z,16.33
2023-02-23T19:35:14.931Z,15.87
2023-02-23T19:40:07.596Z,15.67
2023-02-23T19:44:59.626Z,16.07
2023-02-23T19:49:51.471Z,15.57
2023-02-23T19:54:44.850Z,14.93
2023-02-23T19:59:37.739Z,16.30
2023-02-23T20:04:29.699Z,15.17
2023-02-23T20:09:21.491Z,14.43
2023-02-23T20:14:13.634Z,12.97
2023-02-23T20:19:07.626Z,13.87
2023-02-23T20:24:01.770Z,13.40
2023-02-23T20:28:54.754Z,14.23
2023-02-23T20:33:50.279Z,13.80
2023-02-23T20:38:42.453Z,13.40
2023-02-23T20:43:34.242Z,13.03
2023-02-23T20:48:27.324Z,14.33
2023-02-23T20:53:22.142Z,12.23
2023-02-23T20:58:14.405Z,11.23
2023-02-23T21:03:07.047Z,10.63
2023-02-23T21:08:05.165Z,9.13
2023-02-23T21:12:57.167Z,10.83
2023-02-23T21:17:50.498Z,10.70
2023-02-23T21:22:42.568Z,10.77
2023-02-23T21:27:34.424Z,11.20
2023-02-23T21:32:30.938Z,10.67
2023-02-23T21:37:22.670Z,12.20
2023-02-23T21:42:14.384Z,10.97
2023-02-23T21:47:07.252Z,11.47
2023-02-23T21:51:59.321Z,11.70
2023-02-23T21:56:51.047Z,11.83
2023-02-23T22:01:43.593Z,10.50
2023-02-23T22:06:38.949Z,10.17
2023-02-23T22:11:31.061Z,10.50
2023-02-23T22:16:22.966Z,9.27
2023-02-23T22:21:14.856Z,9.73
2023-02-23T22:26:07.987Z,9.87
2023-02-23T22:31:04.419Z,9.90
2023-02-23T22:35:58.460Z,9.83
2023-02-23T22:40:50.170Z,9.93
2023-02-23T22:45:42.481Z,10.10
2023-02-23T22:50:34.963Z,9.80
2023-02-23T22:55:29.284Z,10.13
2023-02-23T23:00:21.622Z,9.77
2023-02-23T23:05:13.933Z,10.30
2023-02-23T23:10:09.293Z,10.27
2023-02-23T23:15:01.453Z,9.67
2023-02-23T23:19:53.230Z,10.17
2023-02-23T23:24:49.052Z,9.47
2023-02-23T23:29:45.624Z,10.30
2023-02-23T23:34:37.407Z,9.63
2023-02-23T23:39:29.282Z,9.67
2023-02-23T23:44:23.688Z,10.30
2023-02-23T23:49:19.151Z,11.50
2023-02-23T23:54:13.792Z,14.63
2023-02-23T23:59:10.740Z,20.67
